Terminal Aerodrome Forecast
Issued by NWS

Home | Current Version | Previous Version | Text Only | Print | Product List | Glossary On
Versions: 1 2 3 4 5 6 7 8 9 10 11 12 13 14 15 16 17 18 19 20 21 22 23 24 25 26 27 28 29 30 31 32
000
FTUS45 KCYS 261744
TAFLAR
TAF
KLAR 261744Z 2618/2718 27005KT 1SM -SN BR OVC028
      TEMPO 2618/2621 4SM -SN BR OVC035
     FM262200 08008KT P6SM OVC035
     FM270200 10005KT P6SM BKN050
     FM271000 21008KT P6SM SCT080=

USA.gov is the U.S. government's official web portal to all federal, state and local government web resources and services.